Time;durP1;ratioP1;P1;durP2;ratioP2;P2;SDS_P1;SDS_P2;PMS_P1;PMS_P2;Temp;Humidity;BMP_temperature;BMP_pressure;BME280_temperature;BME280_humidity;BME280_pressure;Samples;Min_cycle;Max_cycle;Signal;HPM_P1;HPM_P2
2021/07/26 00:01:22;;;;;;;1.40;1.07;;;16.60;99.90;;;;;;5051213;28;20060;-86
2021/07/26 00:03:48;;;;;;;0.90;0.90;;;16.50;99.90;;;;;;5051028;28;20031;-86
2021/07/26 00:06:14;;;;;;;0.57;0.47;;;16.50;99.90;;;;;;5050299;28;20115;-86
2021/07/26 00:08:40;;;;;;;1.17;1.10;;;16.50;99.90;;;;;;5050697;28;20052;-86
2021/07/26 00:11:07;;;;;;;0.70;0.70;;;16.50;99.90;;;;;;5050809;28;20020;-86
2021/07/26 00:13:33;;;;;;;1.25;1.15;;;16.40;99.90;;;;;;5050850;28;20572;-86
2021/07/26 00:15:59;;;;;;;2.17;0.80;;;16.50;99.90;;;;;;5050644;28;20021;-86
2021/07/26 00:18:28;;;;;;;0.30;0.30;;;16.40;99.90;;;;;;5049162;28;20048;-86
2021/07/26 00:20:55;;;;;;;0.70;0.70;;;16.40;99.90;;;;;;5049081;28;20087;-85
2021/07/26 00:23:21;;;;;;;1.05;0.93;;;16.40;99.90;;;;;;5049975;28;20021;-85
2021/07/26 00:25:47;;;;;;;0.83;0.40;;;16.50;99.90;;;;;;5050386;28;20548;-86
2021/07/26 00:28:13;;;;;;;0.82;0.77;;;16.40;99.90;;;;;;5050316;28;20036;-85
2021/07/26 00:30:39;;;;;;;0.40;0.40;;;16.40;99.90;;;;;;5050410;28;20025;-85
2021/07/26 00:33:47;;;;;;;;;;;;;;;;;;;;;
2021/07/26 00:36:13;;;;;;;1.10;1.08;;;16.40;99.90;;;;;;5030145;28;20294;-86
2021/07/26 00:38:38;;;;;;;1.03;1.03;;;16.50;99.90;;;;;;5030339;28;20556;-86
2021/07/26 00:41:05;;;;;;;0.30;0.30;;;16.40;99.90;;;;;;5029244;28;20059;-86
2021/07/26 00:43:30;;;;;;;0.50;0.50;;;16.30;99.90;;;;;;5030142;28;20025;-86
2021/07/26 00:45:56;;;;;;;0.50;0.50;;;16.40;99.90;;;;;;5029990;28;20029;-85
2021/07/26 00:48:22;;;;;;;1.50;1.17;;;16.30;99.90;;;;;;5029792;28;20033;-86
2021/07/26 00:50:48;;;;;;;0.87;0.87;;;16.30;99.90;;;;;;5030421;28;20039;-86
2021/07/26 00:53:14;;;;;;;0.32;0.32;;;16.30;99.90;;;;;;5028823;28;20045;-86
2021/07/26 00:55:41;;;;;;;0.40;0.40;;;16.30;99.90;;;;;;5030065;28;20077;-86
2021/07/26 00:58:07;;;;;;;0.65;0.30;;;16.20;99.90;;;;;;5030220;28;20359;-86
2021/07/26 01:00:33;;;;;;;0.37;0.37;;;16.20;99.90;;;;;;5039291;28;20028;-86
2021/07/26 01:02:59;;;;;;;0.13;0.13;;;16.10;99.90;;;;;;5030348;28;20563;-86
2021/07/26 01:05:25;;;;;;;0.37;0.33;;;16.20;99.90;;;;;;5030293;28;20437;-86
2021/07/26 01:07:50;;;;;;;3.60;1.07;;;16.10;99.90;;;;;;5030006;28;20284;-86
2021/07/26 01:10:16;;;;;;;0.30;0.30;;;16.00;99.90;;;;;;5030181;28;20025;-86
2021/07/26 01:12:43;;;;;;;0.60;0.60;;;15.90;99.90;;;;;;5029809;28;20021;-86
2021/07/26 01:15:09;;;;;;;0.22;0.22;;;15.90;99.90;;;;;;5030002;28;20028;-86
2021/07/26 01:18:13;;;;;;;0.20;0.20;;;15.80;99.90;;;;;;5029724;28;20026;-86
2021/07/26 01:20:39;;;;;;;0.68;0.65;;;15.80;99.90;;;;;;5047307;28;20040;-86
2021/07/26 01:23:04;;;;;;;0.37;0.37;;;15.80;99.90;;;;;;5047362;28;20033;-86
2021/07/26 01:25:30;;;;;;;0.30;0.30;;;15.90;99.90;;;;;;5030600;28;20493;-85
2021/07/26 01:27:56;;;;;;;0.87;0.87;;;15.90;99.90;;;;;;5047275;28;20029;-86
2021/07/26 01:30:22;;;;;;;0.73;0.63;;;15.90;99.90;;;;;;5047352;28;20168;-86
2021/07/26 01:32:48;;;;;;;1.30;0.33;;;15.90;99.90;;;;;;5047037;28;20037;-86
2021/07/26 01:35:13;;;;;;;0.67;0.47;;;15.80;99.90;;;;;;5047491;28;20022;-86
2021/07/26 01:37:39;;;;;;;0.63;0.63;;;15.90;99.90;;;;;;5046781;28;20120;-86
2021/07/26 01:40:05;;;;;;;1.50;0.50;;;15.80;99.90;;;;;;5030578;28;20056;-86
2021/07/26 01:42:31;;;;;;;1.08;0.60;;;15.80;99.90;;;;;;5046865;28;20037;-86
2021/07/26 01:44:58;;;;;;;2.40;0.83;;;15.70;99.90;;;;;;5030364;28;20037;-86
2021/07/26 01:47:26;;;;;;;0.65;0.65;;;15.70;99.90;;;;;;5047080;28;20033;-86
2021/07/26 01:50:01;;;;;;;1.48;1.27;;;15.70;99.90;;;;;;5052294;28;20076;-86
2021/07/26 01:52:27;;;;;;;13.40;0.90;;;15.60;99.90;;;;;;5036056;28;20029;-86
2021/07/26 01:54:53;;;;;;;14.37;0.90;;;15.50;99.90;;;;;;5046954;28;20025;-86
2021/07/26 01:57:19;;;;;;;1.10;0.73;;;15.50;99.90;;;;;;5039482;28;20060;-86
2021/07/26 01:59:46;;;;;;;0.40;0.40;;;15.50;99.90;;;;;;5032823;28;20029;-86
2021/07/26 02:02:12;;;;;;;2.05;0.95;;;15.50;99.90;;;;;;5033267;28;20280;-86
2021/07/26 02:04:38;;;;;;;0.83;0.83;;;15.50;99.90;;;;;;5033058;28;20036;-86
2021/07/26 02:07:06;;;;;;;0.43;0.43;;;15.50;99.90;;;;;;5033016;28;20422;-86
2021/07/26 02:09:33;;;;;;;1.55;1.23;;;15.50;99.90;;;;;;5032866;28;20018;-86
2021/07/26 02:12:00;;;;;;;0.73;0.73;;;15.50;99.90;;;;;;5031746;28;20063;-86
2021/07/26 02:14:26;;;;;;;0.20;0.20;;;15.50;99.90;;;;;;5033190;28;20029;-86
2021/07/26 02:16:52;;;;;;;1.13;0.90;;;15.60;99.90;;;;;;5032558;28;20036;-85
2021/07/26 02:19:19;;;;;;;1.35;0.75;;;15.80;99.90;;;;;;5032826;28;20033;-86
2021/07/26 02:21:45;;;;;;;0.32;0.25;;;15.80;99.90;;;;;;5032699;28;20026;-86
2021/07/26 02:24:11;;;;;;;0.20;0.20;;;15.80;99.90;;;;;;5033017;28;20030;-86
2021/07/26 02:26:37;;;;;;;1.70;1.60;;;15.80;99.90;;;;;;5038464;28;20039;-86
2021/07/26 02:29:05;;;;;;;0.20;0.20;;;15.80;99.90;;;;;;5052559;28;20021;-86
2021/07/26 02:31:31;;;;;;;0.30;0.30;;;15.60;99.90;;;;;;5051199;28;20091;-86
2021/07/26 02:33:56;;;;;;;0.27;0.27;;;15.50;99.90;;;;;;5044189;28;20489;-86
2021/07/26 02:36:22;;;;;;;0.90;0.90;;;15.50;99.90;;;;;;5032627;28;20029;-86
2021/07/26 02:38:48;;;;;;;7.40;0.63;;;15.40;99.90;;;;;;5032442;28;20022;-86
2021/07/26 02:41:15;;;;;;;0.93;0.93;;;15.30;99.90;;;;;;5051401;28;20027;-86
2021/07/26 02:43:42;;;;;;;0.77;0.77;;;15.20;99.90;;;;;;5052265;28;20051;-86
2021/07/26 02:46:08;;;;;;;0.30;0.25;;;15.30;99.90;;;;;;5052109;28;20063;-86
2021/07/26 02:48:38;;;;;;;;;;;15.20;99.90;;;;;;5052887;28;20021;-85
2021/07/26 02:51:05;;;;;;;0.10;0.10;;;15.20;99.90;;;;;;5052274;28;19915;-85
2021/07/26 02:53:31;;;;;;;1.08;0.98;;;15.10;99.90;;;;;;5050356;28;20032;-86
2021/07/26 02:55:57;;;;;;;2.43;1.10;;;15.30;99.90;;;;;;5051679;28;20420;-86
2021/07/26 02:58:23;;;;;;;0.70;0.70;;;15.30;99.90;;;;;;5050291;28;20537;-86
2021/07/26 03:00:51;;;;;;;0.52;0.50;;;15.20;99.90;;;;;;5051515;28;20060;-86
2021/07/26 03:03:17;;;;;;;0.85;0.82;;;15.20;99.90;;;;;;5051789;28;20103;-86
2021/07/26 03:05:43;;;;;;;1.53;1.10;;;15.20;99.90;;;;;;5051573;28;20041;-86
2021/07/26 03:08:08;;;;;;;0.67;0.67;;;15.30;99.90;;;;;;5051050;28;20032;-86
2021/07/26 03:10:34;;;;;;;1.00;0.57;;;15.30;99.90;;;;;;5051894;28;20025;-86
2021/07/26 03:13:00;;;;;;;2.17;0.73;;;15.20;99.90;;;;;;5050653;28;20025;-85
2021/07/26 03:15:26;;;;;;;0.20;0.20;;;15.10;99.90;;;;;;5052184;28;20075;-85
2021/07/26 03:17:52;;;;;;;1.90;0.60;;;15.20;99.90;;;;;;5051463;28;20040;-86
2021/07/26 03:20:18;;;;;;;0.57;0.57;;;15.10;99.90;;;;;;5051849;28;20051;-85
2021/07/26 03:22:49;;;;;;;0.70;0.70;;;15.10;99.90;;;;;;5051421;28;20033;-86
2021/07/26 03:25:15;;;;;;;0.22;0.22;;;15.00;99.90;;;;;;5048016;28;20025;-85
2021/07/26 03:27:41;;;;;;;1.80;0.50;;;15.00;99.90;;;;;;5031391;28;20084;-86
2021/07/26 03:30:07;;;;;;;0.57;0.47;;;15.00;99.90;;;;;;5031604;28;20092;-86
2021/07/26 03:32:33;;;;;;;0.30;0.30;;;14.90;99.90;;;;;;5031652;28;20026;-85
2021/07/26 03:34:58;;;;;;;2.23;1.23;;;14.80;99.90;;;;;;5032991;28;20109;-86
2021/07/26 03:37:24;;;;;;;0.20;0.20;;;14.80;99.90;;;;;;5050184;28;20033;-86
2021/07/26 03:39:50;;;;;;;1.37;0.53;;;14.70;99.90;;;;;;5051516;28;20039;-85
2021/07/26 03:42:16;;;;;;;0.40;0.40;;;14.70;99.90;;;;;;5051442;28;20033;-85
2021/07/26 03:44:41;;;;;;;1.37;0.70;;;14.60;99.90;;;;;;5051490;28;20032;-85
2021/07/26 03:47:07;;;;;;;2.80;1.33;;;14.50;99.90;;;;;;5051045;28;20033;-85
2021/07/26 03:49:33;;;;;;;0.70;0.70;;;14.50;99.90;;;;;;5051454;28;20025;-85
2021/07/26 03:51:59;;;;;;;0.40;0.40;;;14.50;99.90;;;;;;5051382;28;20309;-86
2021/07/26 03:54:25;;;;;;;0.20;0.20;;;14.50;99.90;;;;;;5051335;28;20044;-85
2021/07/26 03:56:50;;;;;;;2.40;1.33;;;14.40;99.90;;;;;;5051120;28;20087;-86
2021/07/26 03:59:16;;;;;;;0.40;0.33;;;14.40;99.90;;;;;;5050277;28;20040;-85
2021/07/26 04:01:42;;;;;;;1.33;0.87;;;14.40;99.90;;;;;;5049910;28;20167;-86
2021/07/26 04:04:08;;;;;;;0.90;0.90;;;14.30;99.90;;;;;;5051068;28;20017;-86
2021/07/26 04:06:33;;;;;;;0.93;0.50;;;14.30;99.90;;;;;;5051069;28;20029;-85
2021/07/26 04:09:00;;;;;;;0.30;0.30;;;14.40;99.90;;;;;;5050943;28;20132;-86
2021/07/26 04:11:34;;;;;;;0.30;0.30;;;14.30;99.90;;;;;;5050981;28;20028;-86
2021/07/26 04:14:03;;;;;;;1.02;0.73;;;14.30;99.90;;;;;;5050504;28;20543;-85
2021/07/26 04:16:30;;;;;;;0.40;0.40;;;14.40;99.90;;;;;;5050995;28;20020;-86
2021/07/26 04:18:57;;;;;;;1.25;0.95;;;14.40;99.90;;;;;;5051010;28;20025;-86
2021/07/26 04:21:33;;;;;;;0.38;0.38;;;14.30;99.90;;;;;;5049788;28;20408;-85
2021/07/26 04:24:02;;;;;;;0.20;0.20;;;14.40;99.90;;;;;;5050168;28;20027;-85
2021/07/26 04:26:28;;;;;;;0.45;0.45;;;14.40;99.90;;;;;;5050524;28;20055;-85
2021/07/26 04:28:55;;;;;;;0.93;0.60;;;14.40;99.90;;;;;;5050610;28;20079;-85
2021/07/26 04:31:21;;;;;;;0.20;0.20;;;14.40;99.90;;;;;;5049883;28;20032;-87
2021/07/26 04:33:46;;;;;;;0.60;0.60;;;14.40;99.90;;;;;;5043521;28;20026;-85
2021/07/26 04:36:12;;;;;;;0.37;0.37;;;14.30;99.90;;;;;;5030119;28;20112;-86
2021/07/26 04:38:38;;;;;;;0.40;0.40;;;14.30;99.90;;;;;;5030476;28;20026;-85
2021/07/26 04:41:04;;;;;;;0.43;0.43;;;14.30;99.90;;;;;;5030325;28;20485;-86
2021/07/26 04:43:30;;;;;;;0.60;0.47;;;14.40;99.90;;;;;;5030178;28;20029;-85
2021/07/26 04:45:56;;;;;;;5.23;0.97;;;14.30;99.90;;;;;;5029200;28;20025;-85
2021/07/26 04:48:22;;;;;;;0.52;0.52;;;14.40;99.90;;;;;;5029900;28;20025;-85
2021/07/26 04:50:48;;;;;;;3.55;0.70;;;14.30;99.90;;;;;;5030340;28;20033;-86
2021/07/26 04:53:14;;;;;;;1.13;0.77;;;14.30;99.90;;;;;;5029859;28;20071;-85
2021/07/26 04:55:40;;;;;;;1.20;0.30;;;14.30;99.90;;;;;;5029897;28;20437;-86
2021/07/26 04:58:06;;;;;;;0.10;0.10;;;14.40;99.90;;;;;;5028714;28;20037;-85
2021/07/26 05:00:32;;;;;;;0.17;0.17;;;14.50;99.90;;;;;;5029812;28;20040;-86
2021/07/26 05:02:58;;;;;;;2.07;0.57;;;14.60;99.90;;;;;;5030028;28;20536;-85
2021/07/26 05:05:24;;;;;;;1.10;1.00;;;14.80;99.90;;;;;;5029813;28;20029;-85
2021/07/26 05:07:49;;;;;;;0.50;0.50;;;15.00;99.90;;;;;;5029809;28;20107;-85
2021/07/26 05:10:15;;;;;;;0.47;0.47;;;15.10;99.90;;;;;;5029967;28;20025;-86
2021/07/26 05:12:42;;;;;;;0.40;0.40;;;15.10;99.90;;;;;;5029721;28;20037;-85
2021/07/26 05:15:09;;;;;;;0.73;0.52;;;15.20;99.90;;;;;;5030067;28;20033;-86
2021/07/26 05:17:35;;;;;;;;;;;15.30;99.90;;;;;;5028841;28;20034;-85
2021/07/26 05:20:00;;;;;;;1.77;0.88;;;15.30;99.90;;;;;;5028101;28;19916;-87
2021/07/26 05:22:26;;;;;;;0.53;0.53;;;15.40;99.90;;;;;;5029572;28;20114;-85
2021/07/26 05:24:52;;;;;;;0.30;0.30;;;15.60;99.90;;;;;;5029563;28;20120;-86
2021/07/26 05:27:19;;;;;;;1.40;0.77;;;16.00;99.90;;;;;;5028402;28;20108;-85
2021/07/26 05:29:45;;;;;;;;;;;16.50;99.90;;;;;;5030418;28;20018;-85
2021/07/26 05:32:11;;;;;;;2.90;0.47;;;16.70;99.90;;;;;;5031450;28;19996;-85
2021/07/26 05:34:37;;;;;;;0.40;0.40;;;16.40;99.90;;;;;;5046989;28;20112;-85
2021/07/26 05:37:03;;;;;;;1.23;0.50;;;16.40;99.90;;;;;;5053870;28;20029;-86
2021/07/26 05:39:29;;;;;;;1.13;0.77;;;16.40;99.90;;;;;;5048591;28;20026;-86
2021/07/26 05:41:58;;;;;;;0.90;0.87;;;16.90;99.90;;;;;;5033658;28;20037;-86
2021/07/26 05:44:24;;;;;;;0.30;0.30;;;18.30;99.90;;;;;;5033551;28;20712;-85
2021/07/26 05:46:50;;;;;;;0.40;0.40;;;19.20;99.90;;;;;;5031819;28;20026;-85
2021/07/26 05:49:16;;;;;;;5.63;1.25;;;19.50;99.90;;;;;;5033854;28;20025;-85
2021/07/26 05:51:42;;;;;;;0.63;0.63;;;18.80;99.90;;;;;;5033321;28;20021;-86
2021/07/26 05:54:08;;;;;;;0.77;0.77;;;18.50;99.90;;;;;;5033830;28;20013;-85
2021/07/26 05:56:40;;;;;;;0.20;0.20;;;18.40;99.90;;;;;;5033308;28;20045;-86
2021/07/26 05:59:06;;;;;;;0.32;0.32;;;18.70;99.90;;;;;;5033768;28;20084;-85
2021/07/26 06:01:50;;;;;;;0.80;0.60;;;21.70;99.90;;;;;;5032013;28;20032;-86
2021/07/26 06:04:21;;;;;;;0.82;0.77;;;23.40;99.90;;;;;;5033656;28;20033;-86
2021/07/26 06:06:49;;;;;;;0.70;0.57;;;23.30;99.90;;;;;;5033272;28;20040;-86
2021/07/26 06:09:15;;;;;;;0.65;0.65;;;23.40;99.90;;;;;;5032232;28;20063;-86
2021/07/26 06:11:42;;;;;;;1.20;0.93;;;25.50;99.90;;;;;;5033336;28;20122;-86
2021/07/26 06:14:15;;;;;;;0.55;0.55;;;25.60;99.90;;;;;;5033549;28;20386;-86
2021/07/26 06:16:42;;;;;;;0.82;0.82;;;24.50;99.90;;;;;;5033383;28;20028;-86
2021/07/26 06:19:10;;;;;;;;;;;23.70;99.90;;;;;;5033833;28;20417;-86
2021/07/26 06:21:45;;;;;;;0.55;0.55;;;23.70;99.90;;;;;;5033396;28;19912;-86
2021/07/26 06:24:11;;;;;;;0.70;0.60;;;23.00;99.90;;;;;;5032074;28;20099;-86
2021/07/26 06:26:37;;;;;;;;;;;24.50;99.20;;;;;;5033128;28;20473;-86
2021/07/26 06:29:04;;;;;;;0.63;0.63;;;24.40;99.00;;;;;;5033167;28;19987;-86
2021/07/26 06:31:32;;;;;;;2.10;1.10;;;25.60;97.60;;;;;;5031940;28;20028;-86
2021/07/26 06:34:02;;;;;;;0.63;0.40;;;26.40;94.80;;;;;;5032598;28;20057;-86
2021/07/26 06:36:29;;;;;;;0.20;0.20;;;28.30;92.50;;;;;;5031887;28;20029;-86
2021/07/26 06:38:55;;;;;;;0.85;0.47;;;28.50;89.90;;;;;;5032684;28;20083;-86
2021/07/26 06:41:22;;;;;;;1.20;1.10;;;28.40;85.30;;;;;;5033159;28;20053;-86
2021/07/26 06:43:49;;;;;;;0.28;0.28;;;28.40;83.00;;;;;;5031567;28;20057;-86
2021/07/26 06:46:15;;;;;;;0.28;0.28;;;27.80;79.60;;;;;;5031966;28;20036;-86
2021/07/26 06:48:41;;;;;;;0.28;0.28;;;28.60;78.80;;;;;;5032275;28;20033;-86
2021/07/26 06:51:07;;;;;;;0.60;0.35;;;28.30;73.80;;;;;;5032687;28;20060;-86
2021/07/26 06:53:33;;;;;;;0.47;0.47;;;29.90;75.00;;;;;;5031147;28;20034;-86
2021/07/26 06:56:06;;;;;;;0.20;0.20;;;29.60;74.60;;;;;;5032226;28;20055;-86
2021/07/26 06:58:32;;;;;;;5.88;0.30;;;29.60;69.00;;;;;;5039005;28;20041;-86
2021/07/26 07:01:03;;;;;;;0.45;0.45;;;31.10;67.30;;;;;;5052250;28;20018;-86
2021/07/26 07:03:29;;;;;;;0.80;0.55;;;30.90;64.80;;;;;;5052433;28;20059;-86
2021/07/26 07:06:04;;;;;;;2.83;0.60;;;31.70;61.10;;;;;;5051996;28;20025;-85
2021/07/26 07:08:30;;;;;;;1.50;0.47;;;32.10;60.40;;;;;;5052385;28;20040;-86
2021/07/26 07:11:24;;;;;;;1.48;1.38;;;32.10;59.00;;;;;;5051918;28;20489;-86
2021/07/26 07:13:51;;;;;;;0.52;0.52;;;32.20;55.40;;;;;;5051592;28;20029;-86
2021/07/26 07:16:21;;;;;;;0.60;0.60;;;32.80;51.40;;;;;;5052052;28;20029;-86
2021/07/26 07:18:48;;;;;;;0.03;0.03;;;33.50;46.10;;;;;;5051723;28;20528;-86
2021/07/26 07:21:24;;;;;;;2.85;0.10;;;29.50;49.40;;;;;;5051975;28;20381;-86
2021/07/26 07:23:51;;;;;;;0.32;0.32;;;28.20;56.50;;;;;;5051443;28;20028;-86
2021/07/26 07:26:19;;;;;;;0.10;0.10;;;26.70;68.10;;;;;;5050532;28;20036;-86
2021/07/26 07:28:45;;;;;;;1.98;0.35;;;25.40;70.10;;;;;;5051306;28;20025;-86
2021/07/26 07:31:11;;;;;;;1.55;0.77;;;23.50;76.00;;;;;;5051508;28;20059;-86
2021/07/26 07:33:38;;;;;;;6.57;0.30;;;22.60;80.40;;;;;;5050043;28;20744;-86
2021/07/26 07:36:05;;;;;;;0.52;0.52;;;22.30;81.10;;;;;;5051489;28;20021;-86
2021/07/26 07:38:31;;;;;;;1.55;0.90;;;22.50;83.70;;;;;;5050137;28;20017;-86
2021/07/26 07:40:58;;;;;;;2.38;0.93;;;23.50;80.70;;;;;;5051143;28;20094;-86
2021/07/26 07:43:25;;;;;;;0.22;0.22;;;22.50;84.40;;;;;;5051075;28;20049;-86
2021/07/26 07:45:51;;;;;;;0.10;0.10;;;25.60;80.50;;;;;;5051332;28;20103;-86
2021/07/26 07:48:20;;;;;;;1.70;0.60;;;25.60;73.70;;;;;;5051433;28;20025;-86
2021/07/26 07:50:46;;;;;;;0.70;0.63;;;29.00;63.10;;;;;;5051159;28;20033;-86
2021/07/26 07:53:12;;;;;;;1.20;0.60;;;28.60;74.40;;;;;;5049948;28;20025;-86
2021/07/26 07:55:37;;;;;;;1.50;0.77;;;29.10;60.50;;;;;;5050980;28;20534;-86
2021/07/26 07:58:04;;;;;;;0.00;0.00;;;28.10;59.00;;;;;;5051198;28;20106;-86
2021/07/26 08:00:29;;;;;;;0.88;0.77;;;26.30;64.10;;;;;;5051081;28;20021;-86
2021/07/26 08:02:56;;;;;;;0.93;0.85;;;24.30;70.90;;;;;;5051217;28;20036;-86
2021/07/26 08:05:22;;;;;;;0.60;0.60;;;22.20;79.00;;;;;;5051280;28;20025;-86
2021/07/26 08:07:47;;;;;;;1.90;1.17;;;21.60;84.70;;;;;;5050949;28;20412;-86
2021/07/26 08:10:14;;;;;;;1.55;0.70;;;21.40;87.60;;;;;;5051036;28;20305;-86
2021/07/26 08:12:42;;;;;;;0.10;0.10;;;24.60;81.90;;;;;;5051116;28;20141;-86
2021/07/26 08:15:08;;;;;;;0.20;0.20;;;30.50;62.90;;;;;;5050906;28;20032;-87
2021/07/26 08:17:41;;;;;;;1.25;0.80;;;34.70;47.20;;;;;;5050004;28;20120;-86
2021/07/26 08:20:09;;;;;;;0.63;0.38;;;34.10;41.20;;;;;;5051228;28;20029;-86
2021/07/26 08:22:35;;;;;;;0.57;0.25;;;29.40;51.80;;;;;;5049674;28;20110;-86
2021/07/26 08:25:01;;;;;;;0.08;0.08;;;28.50;53.40;;;;;;5051179;28;20103;-86
2021/07/26 08:27:27;;;;;;;0.00;0.00;;;31.50;50.50;;;;;;5051200;28;20136;-86
2021/07/26 08:29:53;;;;;;;0.35;0.28;;;34.40;33.30;;;;;;5051145;28;20091;-87
2021/07/26 08:32:18;;;;;;;0.00;0.00;;;32.80;43.40;;;;;;5051064;28;20040;-86
2021/07/26 08:34:44;;;;;;;1.25;0.52;;;30.60;40.70;;;;;;5036886;28;20565;-86
2021/07/26 08:37:10;;;;;;;0.10;0.10;;;33.60;37.30;;;;;;5031076;28;20037;-86
2021/07/26 08:39:38;;;;;;;0.43;0.20;;;34.30;37.20;;;;;;5031100;28;20033;-86
2021/07/26 08:42:05;;;;;;;0.10;0.10;;;31.90;44.50;;;;;;5030766;28;20029;-86
2021/07/26 08:44:33;;;;;;;0.20;0.20;;;34.60;39.80;;;;;;5030784;28;20040;-86
2021/07/26 08:47:02;;;;;;;0.77;0.60;;;36.80;28.20;;;;;;5029352;28;20026;-86
2021/07/26 08:49:28;;;;;;;0.30;0.28;;;39.30;22.10;;;;;;5030569;28;20104;-87
2021/07/26 08:51:56;;;;;;;0.17;0.17;;;39.60;22.40;;;;;;5030468;28;20045;-86
2021/07/26 08:54:23;;;;;;;1.98;0.95;;;35.60;25.10;;;;;;5030508;28;20025;-86
2021/07/26 08:56:51;;;;;;;0.47;0.47;;;32.80;33.30;;;;;;5030374;28;20053;-86
2021/07/26 08:59:16;;;;;;;0.20;0.20;;;33.30;37.30;;;;;;5030123;28;20036;-86
2021/07/26 09:01:43;;;;;;;;;;;33.40;27.50;;;;;;5030909;28;20033;-86
2021/07/26 09:04:09;;;;;;;1.17;0.68;;;34.20;29.10;;;;;;5030295;28;19975;-86
2021/07/26 09:06:34;;;;;;;;;;;37.70;20.20;;;;;;5042783;28;20032;-86
2021/07/26 09:09:01;;;;;;;0.20;0.20;;;37.20;17.10;;;;;;5050195;28;19916;-87
2021/07/26 09:11:45;;;;;;;0.20;0.20;;;37.40;17.20;;;;;;5049989;28;20036;-87
2021/07/26 09:14:38;;;;;;;3.10;0.10;;;37.40;16.20;;;;;;5050003;28;20126;-86
2021/07/26 09:17:05;;;;;;;0.68;0.40;;;36.80;18.90;;;;;;5047380;28;20071;-86
2021/07/26 09:19:58;;;;;;;0.30;0.30;;;34.20;17.40;;;;;;5050144;28;20017;-86
2021/07/26 09:22:34;;;;;;;0.47;0.45;;;30.70;27.40;;;;;;5049969;28;20032;-86
2021/07/26 09:25:28;;;;;;;0.17;0.17;;;28.00;37.50;;;;;;5048891;28;20048;-86
2021/07/26 09:28:08;;;;;;;0.30;0.30;;;28.80;41.10;;;;;;5050274;28;20033;-86
2021/07/26 09:30:51;;;;;;;0.30;0.28;;;36.30;20.00;;;;;;5049859;28;20017;-86
2021/07/26 09:33:23;;;;;;;1.10;0.63;;;34.60;20.90;;;;;;5050184;28;20100;-86
2021/07/26 09:36:08;;;;;;;40.25;2.15;;;38.20;13.60;;;;;;5048994;28;20021;-86
2021/07/26 09:38:34;;;;;;;1.45;1.08;;;39.30;6.00;;;;;;5050033;28;20028;-86
2021/07/26 09:41:05;;;;;;;0.43;0.35;;;40.10;3.00;;;;;;5050181;28;20033;-86
2021/07/26 09:43:31;;;;;;;0.00;0.00;;;38.40;9.80;;;;;;5049890;28;20029;-87
2021/07/26 09:45:59;;;;;;;0.38;0.38;;;33.10;19.20;;;;;;5049896;28;20025;-86
2021/07/26 09:48:26;;;;;;;1.75;0.17;;;29.20;27.80;;;;;;5049726;28;20120;-87
2021/07/26 09:50:54;;;;;;;0.70;0.70;;;30.20;28.10;;;;;;5050178;28;20552;-87
2021/07/26 09:53:22;;;;;;;0.80;0.50;;;31.50;25.10;;;;;;5049937;28;20025;-86
2021/07/26 09:55:50;;;;;;;0.57;0.45;;;28.50;31.00;;;;;;5049623;28;20073;-86
2021/07/26 09:58:18;;;;;;;0.88;0.40;;;26.70;37.80;;;;;;5049609;28;20173;-86
2021/07/26 10:00:45;;;;;;;0.30;0.30;;;32.30;27.60;;;;;;5049672;28;20032;-87
2021/07/26 10:03:14;;;;;;;8.18;0.65;;;34.70;22.30;;;;;;5049663;28;20052;-86
2021/07/26 10:05:41;;;;;;;0.25;0.25;;;30.70;27.10;;;;;;5049421;28;20024;-86
2021/07/26 10:08:08;;;;;;;0.80;0.80;;;28.10;36.80;;;;;;5049553;28;20544;-86
2021/07/26 10:10:38;;;;;;;0.68;0.63;;;27.40;36.70;;;;;;5049460;28;20013;-86
2021/07/26 10:13:04;;;;;;;1.00;0.75;;;32.90;25.40;;;;;;5049365;28;20025;-86
2021/07/26 10:15:31;;;;;;;;;;;31.40;27.00;;;;;;5049731;28;20037;-86
2021/07/26 10:17:58;;;;;;;3.08;0.28;;;32.30;25.60;;;;;;5050091;28;19938;-86
2021/07/26 10:20:32;;;;;;;0.30;0.30;;;34.10;24.60;;;;;;5053373;28;20033;-86
2021/07/26 10:23:13;;;;;;;0.20;0.20;;;34.60;19.70;;;;;;5052858;28;20036;-86
2021/07/26 10:25:59;;;;;;;0.85;0.30;;;33.90;18.90;;;;;;5051197;28;20504;-87
2021/07/26 10:28:54;;;;;;;0.20;0.20;;;35.10;19.70;;;;;;5052266;28;20036;-87
2021/07/26 10:31:34;;;;;;;0.30;0.30;;;37.40;11.00;;;;;;5052572;28;20470;-87
2021/07/26 10:34:08;;;;;;;0.40;0.40;;;36.20;12.60;;;;;;5051470;28;20404;-87
2021/07/26 10:36:43;;;;;;;0.30;0.30;;;36.70;13.40;;;;;;5052692;28;20025;-87
2021/07/26 10:39:16;;;;;;;0.53;0.53;;;37.40;11.80;;;;;;5052844;28;20025;-86
2021/07/26 10:41:45;;;;;;;0.10;0.10;;;38.40;9.90;;;;;;5052296;28;20346;-86
2021/07/26 10:44:17;;;;;;;0.13;0.13;;;38.90;2.80;;;;;;5052558;28;20079;-86
2021/07/26 10:47:05;;;;;;;0.15;0.13;;;37.70;5.50;;;;;;5052268;28;20068;-86
2021/07/26 10:49:43;;;;;;;0.28;0.28;;;37.90;9.30;;;;;;5052681;28;20021;-86
2021/07/26 10:52:21;;;;;;;0.60;0.60;;;36.20;12.80;;;;;;5052552;28;20031;-86
2021/07/26 10:54:48;;;;;;;0.05;0.05;;;36.90;14.30;;;;;;5052520;28;20040;-86
2021/07/26 10:57:15;;;;;;;0.20;0.20;;;36.10;8.10;;;;;;5052313;28;20562;-86
2021/07/26 11:00:12;;;;;;;0.43;0.43;;;36.30;9.90;;;;;;5050839;28;20037;-87
2021/07/26 11:02:40;;;;;;;1.02;0.30;;;30.20;22.90;;;;;;5051062;28;20493;-86
2021/07/26 11:05:27;;;;;;;0.60;0.40;;;29.60;24.30;;;;;;5052568;28;20025;-86
2021/07/26 11:08:11;;;;;;;0.20;0.20;;;28.70;26.90;;;;;;5050536;28;20029;-86
2021/07/26 11:10:44;;;;;;;0.30;0.25;;;28.40;28.00;;;;;;5052322;28;20033;-86
2021/07/26 11:13:10;;;;;;;1.73;0.63;;;28.30;27.30;;;;;;5052401;28;20542;-86
2021/07/26 11:15:55;;;;;;;0.47;0.47;;;27.60;29.20;;;;;;5050925;28;20021;-87
2021/07/26 11:18:40;;;;;;;0.30;0.30;;;28.30;40.80;;;;;;5052102;28;20021;-86
2021/07/26 11:21:12;;;;;;;0.70;0.15;;;28.00;29.60;;;;;;5050639;28;20029;-86
2021/07/26 11:24:07;;;;;;;2.58;0.60;;;27.70;29.90;;;;;;5051733;28;20078;-86
2021/07/26 11:26:33;;;;;;;0.30;0.30;;;28.40;29.30;;;;;;5046481;28;20040;-87
2021/07/26 11:29:04;;;;;;;0.43;0.43;;;27.60;30.50;;;;;;5051401;28;20100;-86
2021/07/26 11:31:39;;;;;;;0.30;0.25;;;26.80;33.80;;;;;;5051845;28;20025;-86
2021/07/26 11:34:14;;;;;;;1.17;0.43;;;27.20;30.90;;;;;;5042746;28;20109;-86
2021/07/26 11:37:09;;;;;;;1.20;0.82;;;28.70;31.50;;;;;;5031943;28;20104;-87
2021/07/26 11:39:49;;;;;;;0.55;0.40;;;29.10;28.50;;;;;;5031990;28;20025;-86
2021/07/26 11:42:25;;;;;;;10.30;1.45;;;28.20;41.30;;;;;;5031884;28;20036;-86
2021/07/26 11:44:52;;;;;;;0.10;0.10;;;28.10;30.50;;;;;;5031477;28;20025;-86
2021/07/26 11:47:30;;;;;;;0.38;0.38;;;27.10;33.50;;;;;;5031580;28;20049;-86
2021/07/26 11:49:56;;;;;;;1.45;1.25;;;27.10;33.90;;;;;;5030254;28;20025;-87
2021/07/26 11:52:21;;;;;;;1.73;0.22;;;26.50;35.50;;;;;;5031670;28;20037;-86
2021/07/26 11:54:47;;;;;;;1.05;0.95;;;26.00;38.00;;;;;;5031216;28;20060;-86
2021/07/26 11:57:16;;;;;;;0.22;0.22;;;26.40;37.10;;;;;;5031032;28;20391;-86
2021/07/26 11:59:55;;;;;;;8.50;1.88;;;26.80;35.10;;;;;;5031325;28;20148;-86
2021/07/26 12:02:34;;;;;;;0.65;0.65;;;26.60;37.80;;;;;;5031165;28;20035;-86
2021/07/26 12:05:07;;;;;;;0.75;0.43;;;26.50;37.50;;;;;;5031190;28;20037;-86
2021/07/26 12:07:43;;;;;;;0.80;0.47;;;26.00;39.30;;;;;;5031143;28;20091;-86
2021/07/26 12:10:10;;;;;;;0.10;0.10;;;25.70;41.40;;;;;;5031220;28;20028;-86
2021/07/26 12:12:41;;;;;;;0.47;0.47;;;25.60;40.40;;;;;;5031243;28;20033;-87
2021/07/26 12:15:29;;;;;;;0.85;0.47;;;25.70;43.00;;;;;;5030877;28;20048;-86
2021/07/26 12:18:04;;;;;;;3.92;0.65;;;26.40;39.00;;;;;;5031059;28;20026;-87
2021/07/26 12:20:30;;;;;;;0.30;0.30;;;26.60;38.70;;;;;;5031056;28;20032;-87
2021/07/26 12:22:56;;;;;;;0.10;0.10;;;26.00;41.80;;;;;;5029566;28;20477;-86
2021/07/26 12:25:23;;;;;;;2.10;0.43;;;25.90;39.50;;;;;;5031172;28;20033;-87
2021/07/26 12:27:58;;;;;;;0.03;0.03;;;26.10;39.70;;;;;;5030988;28;20100;-86
2021/07/26 12:30:35;;;;;;;0.50;0.50;;;26.10;39.20;;;;;;5031170;28;20096;-86
2021/07/26 12:33:00;;;;;;;0.50;0.50;;;26.20;41.20;;;;;;5030919;28;20022;-87
2021/07/26 12:35:30;;;;;;;1.73;0.75;;;25.90;41.50;;;;;;5030011;28;20075;-86
2021/07/26 12:38:18;;;;;;;0.50;0.50;;;26.00;41.90;;;;;;5030805;28;20552;-86
2021/07/26 12:40:49;;;;;;;0.40;0.15;;;25.80;41.60;;;;;;5030502;28;20018;-86
2021/07/26 12:43:16;;;;;;;0.20;0.20;;;25.40;41.80;;;;;;5029332;28;20029;-86
2021/07/26 12:45:55;;;;;;;0.50;0.50;;;25.90;42.90;;;;;;5030641;28;20025;-87
2021/07/26 12:48:23;;;;;;;2.85;0.20;;;26.00;39.90;;;;;;5030749;28;20030;-87
2021/07/26 12:50:50;;;;;;;0.32;0.20;;;25.90;39.80;;;;;;5030504;28;20028;-86
2021/07/26 12:53:16;;;;;;;0.55;0.35;;;26.10;41.10;;;;;;5030511;28;20025;-87
2021/07/26 12:55:43;;;;;;;;;;;26.30;39.80;;;;;;5029736;28;20124;-87
2021/07/26 12:58:18;;;;;;;0.90;0.50;;;26.40;38.90;;;;;;5030507;28;20000;-87
2021/07/26 13:00:46;;;;;;;0.70;0.40;;;25.90;40.80;;;;;;5030507;28;20033;-87